»·PEaware :: RNGR824 KNGP-KNGP

RNGR824 :: KNGP-KNGP

FLIGHT INFORMATION

Flight Status: Arrived
Operator: Unknown
More flights by this operator :: More flights under this callsign
Pilot: USN Avenger (31125)
Aircraft: BEECH AIRCRAFT T-6A TEXAN
(TEX2)
More flights by this aircraft type
Origin: KNGP Corpus Christi NAS/Truax
United States
Destination: KNGP Corpus Christi NAS/Truax
United States
More flights between these airports :: More routes between these airports
Route: RNWY 18 MUSTANG 2 ARANSAS COUNTY RNWY 18
File this flight plan on PilotEdge
Remarks:
Altitude:
(Current/Filed)
5,500ft
Speed:
(Current/Filed)
200kts
Departed: 30-Nov-23 02:32 PM
Arrived: 30-Nov-23 03:11 PM
Distance/Time
Traveled:
0nm/0:39
Distance/Time
To Go:
Arrived

Flight Plot

Page will automatically refresh every two minutes.

Flight plan parsing failed; only flown route is shown


Map Options




Map Legend


Flown Route
Filed Route
Departure Airport
Arrival Airport
Navaid (VOR, NDB)
Fix

Horizontal Profiles

Position Reports

Time Latitude Longitude Heading Altitude Ground
Speed
30-Nov-23 14:22 27.698553 -97.284289 158 22ft 0kts
30-Nov-23 14:23 27.698551 -97.284288 158 22ft 0kts
30-Nov-23 14:24 27.698549 -97.284287 158 22ft 0kts
30-Nov-23 14:25 27.698247 -97.284978 252 22ft 9kts
30-Nov-23 14:26 27.699469 -97.286452 228 22ft 6kts
30-Nov-23 14:27 27.697105 -97.289302 226 22ft 14kts
30-Nov-23 14:28 27.695775 -97.290842 226 22ft 0kts
30-Nov-23 14:29 27.695549 -97.291089 223 22ft 12kts
30-Nov-23 14:30 27.694774 -97.291239 136 22ft 0kts
30-Nov-23 14:31 27.676985 -97.268390 129 534ft 168kts
30-Nov-23 14:32 27.644603 -97.222029 107 987ft 195kts
30-Nov-23 14:33 27.648537 -97.169300 35 3584ft 187kts
30-Nov-23 14:34 27.690164 -97.132494 34 5533ft 207kts
30-Nov-23 14:35 27.742722 -97.091115 31 5525ft 244kts
30-Nov-23 14:36 27.800643 -97.049289 34 5564ft 248kts
30-Nov-23 14:37 27.860187 -97.025769 320 6631ft 227kts
30-Nov-23 14:38 27.918065 -97.044395 4 8039ft 249kts
30-Nov-23 14:39 27.915765 -96.988642 32 8504ft 244kts
30-Nov-23 14:40 27.928281 -96.935463 177 7923ft 262kts
30-Nov-23 14:41 27.894402 -96.989200 310 7708ft 261kts
30-Nov-23 14:42 27.953828 -96.961212 41 5183ft 257kts
30-Nov-23 14:43 28.003375 -96.913672 25 4040ft 211kts
30-Nov-23 14:44 28.061493 -96.930128 324 3096ft 236kts
30-Nov-23 14:45 28.105385 -96.986457 300 1317ft 227kts
30-Nov-23 14:46 28.109699 -97.034396 199 1059ft 193kts
30-Nov-23 14:47 28.071273 -97.056978 325 914ft 127kts
30-Nov-23 14:48 28.101882 -97.051717 27 750ft 98kts
30-Nov-23 14:49 28.088568 -97.039462 190 28ft 86kts
30-Nov-23 14:50 28.072500 -97.056539 342 779ft 123kts
30-Nov-23 14:51 28.104208 -97.046517 48 658ft 112kts
30-Nov-23 14:52 28.082289 -97.040733 189 112ft 116kts
30-Nov-23 14:53 28.078866 -97.054781 12 781ft 105kts
30-Nov-23 14:54 28.105899 -97.038917 119 442ft 116kts
30-Nov-23 14:55 28.075585 -97.042540 208 493ft 117kts
30-Nov-23 14:56 28.094664 -97.047847 17 757ft 136kts
30-Nov-23 14:57 28.124952 -97.015968 117 1590ft 197kts
30-Nov-23 14:58 28.068944 -97.001124 189 1501ft 237kts
30-Nov-23 14:59 28.004316 -97.018543 200 1528ft 239kts
30-Nov-23 15:00 27.953646 -97.065779 224 1001ft 238kts
30-Nov-23 15:01 27.901413 -97.111524 206 1018ft 238kts
30-Nov-23 15:02 27.839232 -97.137592 198 1006ft 239kts
30-Nov-23 15:03 27.776450 -97.162360 198 983ft 239kts
30-Nov-23 15:04 27.717843 -97.191401 211 965ft 215kts
30-Nov-23 15:05 27.668177 -97.226324 222 1014ft 209kts
30-Nov-23 15:06 27.672107 -97.284802 314 1068ft 206kts
30-Nov-23 15:07 27.710367 -97.304606 200 628ft 140kts
30-Nov-23 15:08 27.677516 -97.299721 160 812ft 107kts
30-Nov-23 15:09 27.692276 -97.288175 4 23ft 61kts
30-Nov-23 15:10 27.693142 -97.286923 133 22ft 0kts
30-Nov-23 15:11 27.693141 -97.286921 133 22ft 0kts
30-Nov-23 15:12 27.693139 -97.286920 133 22ft 0kts
30-Nov-23 15:13 27.693138 -97.286918 133 22ft 0kts

Navigation Log

Ident Type
Flight plan parsing failed, navigation log unavailable